Time;durP1;ratioP1;P1;durP2;ratioP2;P2;SDS_P1;SDS_P2;PMS_P1;PMS_P2;Temp;Humidity;BMP_temperature;BMP_pressure;BME280_temperature;BME280_humidity;BME280_pressure;Samples;Min_cycle;Max_cycle;Signal;HPM_P1;HPM_P2
2023/02/22 00:00:00;;;;;;;;;;;;;;;;;;5074134;28;19928;-66
2023/02/22 00:02:27;;;;;;;;;;;;;;;;;;5093060;28;19920;-66
2023/02/22 00:04:53;;;;;;;;;;;;;;;;;;5074449;28;20027;-65
2023/02/22 00:07:20;;;;;;;;;;;;;;;;;;5092674;28;20014;-66
2023/02/22 00:09:46;;;;;;;;;;;;;;;;;;5087906;28;19928;-65
2023/02/22 00:12:12;;;;;;;;;;;;;;;;;;5092162;28;19936;-66
2023/02/22 00:14:39;;;;;;;;;;;;;;;;;;5092404;28;20415;-66
2023/02/22 00:17:05;;;;;;;;;;;;;;;;;;5091847;28;19969;-66
2023/02/22 00:19:30;;;;;;;;;;;;;;;;;;5083603;28;19920;-65
2023/02/22 00:21:56;;;;;;;;;;;;;;;;;;5090165;28;19921;-65
2023/02/22 00:24:22;;;;;;;;;;;;;;;;;;5093421;28;19928;-66
2023/02/22 00:26:48;;;;;;;;;;;;;;;;;;5090867;28;19971;-65
2023/02/22 00:29:14;;;;;;;;;;;;;;;;;;5086200;28;19931;-65
2023/02/22 00:31:40;;;;;;;;;;;;;;;;;;5088466;28;20269;-66
2023/02/22 00:34:06;;;;;;;;;;;;;;;;;;5092426;28;19935;-66
2023/02/22 00:36:32;;;;;;;;;;;;;;;;;;5092270;28;19967;-66
2023/02/22 00:38:58;;;;;;;;;;;;;;;;;;5064497;28;19927;-65
2023/02/22 00:41:23;;;;;;;;;;;;;;;;;;5089611;28;19985;-65
2023/02/22 00:43:49;;;;;;;;;;;;;;;;;;5090598;28;20430;-66
2023/02/22 00:46:15;;;;;;;;;;;;;;;;;;5072627;28;19920;-65
2023/02/22 00:48:41;;;;;;;;;;;;;;;;;;5075359;28;19946;-66
2023/02/22 00:51:07;;;;;;;;;;;;;;;;;;5091151;28;20007;-65
2023/02/22 00:53:33;;;;;;;;;;;;;;;;;;5061573;28;19969;-66
2023/02/22 00:55:59;;;;;;;;;;;;;;;;;;5071601;28;19920;-66
2023/02/22 00:58:25;;;;;;;;;;;;;;;;;;5087376;28;19920;-67
2023/02/22 01:00:51;;;;;;;;;;;;;;;;;;5069337;28;19925;-67
2023/02/22 01:03:17;;;;;;;;;;;;;;;;;;5070165;28;19931;-66
2023/02/22 01:05:43;;;;;;;;;;;;;;;;;;5089352;28;19924;-67
2023/02/22 01:08:09;;;;;;;;;;;;;;;;;;5091549;28;19928;-67
2023/02/22 01:10:35;;;;;;;;;;;;;;;;;;5089441;28;19928;-67
2023/02/22 01:13:03;;;;;;;;;;;;;;;;;;5090457;28;19923;-67
2023/02/22 01:15:29;;;;;;;;;;;;;;;;;;5091452;28;19962;-67
2023/02/22 01:17:57;;;;;;;;;;;;;;;;;;5080260;28;19920;-66
2023/02/22 01:20:24;;;;;;;;;;;;;;;;;;5072189;28;19927;-66
2023/02/22 01:22:50;;;;;;;;;;;;;;;;;;5091888;28;20028;-66
2023/02/22 01:25:16;;;;;;;;;;;;;;;;;;5091991;28;20369;-66
2023/02/22 01:27:42;;;;;;;;;;;;;;;;;;5082363;28;19928;-66
2023/02/22 01:30:08;;;;;;;;;;;;;;;;;;5090903;28;20374;-66
2023/02/22 01:32:34;;;;;;;;;;;;;;;;;;5086073;28;19931;-66
2023/02/22 01:35:00;;;;;;;;;;;;;;;;;;5091053;28;19950;-67
2023/02/22 01:37:26;;;;;;;;;;;;;;;;;;5091235;28;19920;-66
2023/02/22 01:39:52;;;;;;;;;;;;;;;;;;5089596;28;19927;-66
2023/02/22 01:42:18;;;;;;;;;;;;;;;;;;5075790;28;19923;-67
2023/02/22 01:44:44;;;;;;;;;;;;;;;;;;5091173;28;19927;-66
2023/02/22 01:47:10;;;;;;;;;;;;;;;;;;5072256;28;19927;-67
2023/02/22 01:49:36;;;;;;;;;;;;;;;;;;5091139;28;19970;-66
2023/02/22 01:52:02;;;;;;;;;;;;;;;;;;5089876;28;19959;-66
2023/02/22 01:54:28;;;;;;;;;;;;;;;;;;5090013;28;19956;-67
2023/02/22 01:56:54;;;;;;;;;;;;;;;;;;5090667;28;19990;-67
2023/02/22 01:59:20;;;;;;;;;;;;;;;;;;5086415;28;19928;-67
2023/02/22 02:01:46;;;;;;;;;;;;;;;;;;5084242;28;19920;-67
2023/02/22 02:04:12;;;;;;;;;;;;;;;;;;5092208;28;19920;-66
2023/02/22 02:06:38;;;;;;;;;;;;;;;;;;5091640;28;19920;-66
2023/02/22 02:09:04;;;;;;;;;;;;;;;;;;5083574;28;20032;-66
2023/02/22 02:11:29;;;;;;;;;;;;;;;;;;5086557;28;19920;-66
2023/02/22 02:13:55;;;;;;;;;;;;;;;;;;5082289;28;19928;-66
2023/02/22 02:16:21;;;;;;;;;;;;;;;;;;5065470;28;20321;-66
2023/02/22 02:18:47;;;;;;;;;;;;;;;;;;5076597;22;19980;-68
2023/02/22 02:21:13;;;;;;;;;;;;;;;;;;5052935;28;20408;-68
2023/02/22 02:23:42;;;;;;;;;;;;;;;;;;5056760;28;20381;-68
2023/02/22 02:26:08;;;;;;;;;;;;;;;;;;5063711;28;19929;-69
2023/02/22 02:28:34;;;;;;;;;;;;;;;;;;5056985;28;19994;-69
2023/02/22 02:31:00;;;;;;;;;;;;;;;;;;5057490;28;20015;-68
2023/02/22 02:33:26;;;;;;;;;;;;;;;;;;5062210;28;19920;-68
2023/02/22 02:35:52;;;;;;;;;;;;;;;;;;5042363;28;19925;-68
2023/02/22 02:38:18;;;;;;;;;;;;;;;;;;5070517;28;19928;-68
2023/02/22 02:40:46;;;;;;;;;;;;;;;;;;5070439;28;19978;-68
2023/02/22 02:43:12;;;;;;;;;;;;;;;;;;5061062;28;20371;-68
2023/02/22 02:45:37;;;;;;;;;;;;;;;;;;5055984;28;20012;-68
2023/02/22 02:48:03;;;;;;;;;;;;;;;;;;5052611;28;19925;-68
2023/02/22 02:50:29;;;;;;;;;;;;;;;;;;5058159;28;19929;-68
2023/02/22 02:52:55;;;;;;;;;;;;;;;;;;5053439;28;19967;-67
2023/02/22 02:55:21;;;;;;;;;;;;;;;;;;5053475;28;20390;-67
2023/02/22 02:57:47;;;;;;;;;;;;;;;;;;5052090;28;19927;-67
2023/02/22 03:00:21;;;;;;;;;;;;;;;;;;5057466;28;19971;-68
2023/02/22 03:02:47;;;;;;;;;;;;;;;;;;5049864;28;20467;-68
2023/02/22 03:05:13;;;;;;;;;;;;;;;;;;5046205;28;19924;-68
2023/02/22 03:07:39;;;;;;;;;;;;;;;;;;5071563;28;19920;-68
2023/02/22 03:10:04;;;;;;;;;;;;;;;;;;5055071;28;19924;-68
2023/02/22 03:12:30;;;;;;;;;;;;;;;;;;5046791;28;19921;-68
2023/02/22 03:14:59;;;;;;;;;;;;;;;;;;5063004;28;19970;-68
2023/02/22 03:17:25;;;;;;;;;;;;;;;;;;5055965;28;19924;-68
2023/02/22 03:19:51;;;;;;;;;;;;;;;;;;5055851;28;20336;-68
2023/02/22 03:22:17;;;;;;;;;;;;;;;;;;5068141;28;19921;-68
2023/02/22 03:24:43;;;;;;;;;;;;;;;;;;5054379;28;19924;-68
2023/02/22 03:27:09;;;;;;;;;;;;;;;;;;5064293;28;19920;-68
2023/02/22 03:29:35;;;;;;;;;;;;;;;;;;5052733;28;19927;-68
2023/02/22 03:32:01;;;;;;;;;;;;;;;;;;5056131;28;19999;-68
2023/02/22 03:34:27;;;;;;;;;;;;;;;;;;5051354;28;20290;-68
2023/02/22 03:36:54;;;;;;;;;;;;;;;;;;5051745;28;19928;-68
2023/02/22 03:39:20;;;;;;;;;;;;;;;;;;5055177;28;19924;-67
2023/02/22 03:41:47;;;;;;;;;;;;;;;;;;5068034;28;20255;-68
2023/02/22 03:44:13;;;;;;;;;;;;;;;;;;5065885;28;19925;-69
2023/02/22 03:46:39;;;;;;;;;;;;;;;;;;5064401;28;19921;-68
2023/02/22 03:49:05;;;;;;;;;;;;;;;;;;5071126;28;19928;-68
2023/02/22 03:51:30;;;;;;;;;;;;;;;;;;5063812;28;19928;-68
2023/02/22 03:53:56;;;;;;;;;;;;;;;;;;5059956;28;19935;-68
2023/02/22 03:56:22;;;;;;;;;;;;;;;;;;5053740;28;20317;-69
2023/02/22 03:58:48;;;;;;;;;;;;;;;;;;5058923;28;19920;-68
2023/02/22 04:01:14;;;;;;;;;;;;;;;;;;5043989;28;19921;-68
2023/02/22 04:03:41;;;;;;;;;;;;;;;;;;5058768;28;20674;-68
2023/02/22 04:06:06;;;;;;;;;;;;;;;;;;5072191;28;19920;-69
2023/02/22 04:08:32;;;;;;;;;;;;;;;;;;5050460;28;20400;-68
2023/02/22 04:11:00;;;;;;;;;;;;;;;;;;5048492;28;19929;-68
2023/02/22 04:13:26;;;;;;;;;;;;;;;;;;5043791;28;20290;-68
2023/02/22 04:15:52;;;;;;;;;;;;;;;;;;5053215;28;19925;-68
2023/02/22 04:18:18;;;;;;;;;;;;;;;;;;5053325;28;19931;-68
2023/02/22 04:20:44;;;;;;;;;;;;;;;;;;5049678;28;20324;-68
2023/02/22 04:23:09;;;;;;;;;;;;;;;;;;5045471;28;20306;-68
2023/02/22 04:25:35;;;;;;;;;;;;;;;;;;5043612;28;19928;-68
2023/02/22 04:28:01;;;;;;;;;;;;;;;;;;5038980;28;19952;-69
2023/02/22 04:30:28;;;;;;;;;;;;;;;;;;5045006;28;20362;-68
2023/02/22 04:32:54;;;;;;;;;;;;;;;;;;5052817;28;20423;-69
2023/02/22 04:35:20;;;;;;;;;;;;;;;;;;5052662;28;20008;-68
2023/02/22 04:37:46;;;;;;;;;;;;;;;;;;5053069;28;19972;-69
2023/02/22 04:40:12;;;;;;;;;;;;;;;;;;5051552;28;19920;-69
2023/02/22 04:42:38;;;;;;;;;;;;;;;;;;5053022;28;20453;-68
2023/02/22 04:45:04;;;;;;;;;;;;;;;;;;5052357;28;19925;-68
2023/02/22 04:47:30;;;;;;;;;;;;;;;;;;5052515;28;20351;-68
2023/02/22 04:49:56;;;;;;;;;;;;;;;;;;5052224;28;19924;-67
2023/02/22 04:52:21;;;;;;;;;;;;;;;;;;5051245;28;19936;-67
2023/02/22 04:54:47;;;;;;;;;;;;;;;;;;5050625;28;19966;-68
2023/02/22 04:57:13;;;;;;;;;;;;;;;;;;5051088;28;20012;-67
2023/02/22 04:59:39;;;;;;;;;;;;;;;;;;5052440;28;19927;-68
2023/02/22 05:02:05;;;;;;;;;;;;;;;;;;5051234;28;20384;-67
2023/02/22 05:04:31;;;;;;;;;;;;;;;;;;5051654;28;19920;-68
2023/02/22 05:06:57;;;;;;;;;;;;;;;;;;5058379;28;19920;-69
2023/02/22 05:09:23;;;;;;;;;;;;;;;;;;5059026;28;19920;-68
2023/02/22 05:11:49;;;;;;;;;;;;;;;;;;5065265;28;19939;-68
2023/02/22 05:14:14;;;;;;;;;;;;;;;;;;5050942;28;20888;-68
2023/02/22 05:16:40;;;;;;;;;;;;;;;;;;5055346;28;20010;-68
2023/02/22 05:19:06;;;;;;;;;;;;;;;;;;5056968;28;20304;-69
2023/02/22 05:21:32;;;;;;;;;;;;;;;;;;5049928;28;19929;-68
2023/02/22 05:23:58;;;;;;;;;;;;;;;;;;5050520;28;19971;-68
2023/02/22 05:26:24;;;;;;;;;;;;;;;;;;5036389;28;19935;-69
2023/02/22 05:28:50;;;;;;;;;;;;;;;;;;5064634;28;19960;-68
2023/02/22 05:31:16;;;;;;;;;;;;;;;;;;5069783;28;19932;-68
2023/02/22 05:33:42;;;;;;;;;;;;;;;;;;5069803;28;19921;-68
2023/02/22 05:36:08;;;;;;;;;;;;;;;;;;5049957;28;19990;-69
2023/02/22 05:38:33;;;;;;;;;;;;;;;;;;5060245;28;19928;-68
2023/02/22 05:40:59;;;;;;;;;;;;;;;;;;5050760;28;19924;-67
2023/02/22 05:43:25;;;;;;;;;;;;;;;;;;5049165;28;19925;-67
2023/02/22 05:45:51;;;;;;;;;;;;;;;;;;5049309;28;20302;-67
2023/02/22 05:48:17;;;;;;;;;;;;;;;;;;5061301;28;19932;-68
2023/02/22 05:50:43;;;;;;;;;;;;;;;;;;5052564;28;19948;-69
2023/02/22 05:53:09;;;;;;;;;;;;;;;;;;5049505;28;19952;-68
2023/02/22 05:55:35;;;;;;;;;;;;;;;;;;5047802;28;19975;-69
2023/02/22 05:58:01;;;;;;;;;;;;;;;;;;5050117;28;19924;-68
2023/02/22 06:00:27;;;;;;;;;;;;;;;;;;5048470;28;19998;-69
2023/02/22 06:02:52;;;;;;;;;;;;;;;;;;5050139;28;20365;-69
2023/02/22 06:05:18;;;;;;;;;;;;;;;;;;5031038;28;19921;-69
2023/02/22 06:07:44;;;;;;;;;;;;;;;;;;5053291;28;19936;-67
2023/02/22 06:10:10;;;;;;;;;;;;;;;;;;5052147;28;20006;-68
2023/02/22 06:12:36;;;;;;;;;;;;;;;;;;5054780;28;19924;-68
2023/02/22 06:15:02;;;;;;;;;;;;;;;;;;5054629;28;19920;-68
2023/02/22 06:17:29;;;;;;;;;;;;;;;;;;5054208;28;19921;-68
2023/02/22 06:19:55;;;;;;;;;;;;;;;;;;5053642;28;19929;-68
2023/02/22 06:22:21;;;;;;;;;;;;;;;;;;5058069;28;19920;-68
2023/02/22 06:24:47;;;;;;;;;;;;;;;;;;5036798;28;20051;-68
2023/02/22 06:27:13;;;;;;;;;;;;;;;;;;5052836;28;19925;-68
2023/02/22 06:29:39;;;;;;;;;;;;;;;;;;5053935;28;19958;-68
2023/02/22 06:32:05;;;;;;;;;;;;;;;;;;5038387;28;19925;-67
2023/02/22 06:34:31;;;;;;;;;;;;;;;;;;5036606;28;19933;-68
2023/02/22 06:36:57;;;;;;;;;;;;;;;;;;5035106;28;19924;-67
2023/02/22 06:39:24;;;;;;;;;;;;;;;;;;5054549;28;20012;-67
2023/02/22 06:41:50;;;;;;;;;;;;;;;;;;5054935;28;20090;-67
2023/02/22 06:44:16;;;;;;;;;;;;;;;;;;5036162;28;19999;-68
2023/02/22 06:46:42;;;;;;;;;;;;;;;;;;5053607;28;20004;-67
2023/02/22 06:49:08;;;;;;;;;;;;;;;;;;5050347;28;19928;-67
2023/02/22 06:51:33;;;;;;;;;;;;;;;;;;5054202;28;19956;-68
2023/02/22 06:53:59;;;;;;;;;;;;;;;;;;5054234;28;20354;-68
2023/02/22 06:56:25;;;;;;;;;;;;;;;;;;5056989;28;19920;-67
2023/02/22 06:58:51;;;;;;;;;;;;;;;;;;5039952;28;19971;-67
2023/02/22 07:01:17;;;;;;;;;;;;;;;;;;5051630;28;20370;-68
2023/02/22 07:03:43;;;;;;;;;;;;;;;;;;5035276;28;19950;-67
2023/02/22 07:06:09;;;;;;;;;;;;;;;;;;5034670;28;20466;-67
2023/02/22 07:08:35;;;;;;;;;;;;;;;;;;5054577;28;20008;-67
2023/02/22 07:11:01;;;;;;;;;;;;;;;;;;5054658;28;20074;-68
2023/02/22 07:13:28;;;;;;;;;;;;;;;;;;5058888;28;19921;-68
2023/02/22 07:15:54;;;;;;;;;;;;;;;;;;5049268;28;19936;-67
2023/02/22 07:18:20;;;;;;;;;;;;;;;;;;5052315;28;19921;-68
2023/02/22 07:20:46;;;;;;;;;;;;;;;;;;5053968;28;20314;-68
2023/02/22 07:23:12;;;;;;;;;;;;;;;;;;5054388;28;19974;-67
2023/02/22 07:25:37;;;;;;;;;;;;;;;;;;5054162;28;19924;-68
2023/02/22 07:28:03;;;;;;;;;;;;;;;;;;5035807;28;20006;-68
2023/02/22 07:30:29;;;;;;;;;;;;;;;;;;5052823;28;20007;-68
2023/02/22 07:32:55;;;;;;;;;;;;;;;;;;5060552;28;19921;-68
2023/02/22 07:35:21;;;;;;;;;;;;;;;;;;5050437;28;19971;-69
2023/02/22 07:37:47;;;;;;;;;;;;;;;;;;5057509;28;20425;-69
2023/02/22 07:40:13;;;;;;;;;;;;;;;;;;5053933;28;20329;-68
2023/02/22 07:42:39;;;;;;;;;;;;;;;;;;5071595;28;19920;-68
2023/02/22 07:45:05;;;;;;;;;;;;;;;;;;5072146;28;19956;-68
2023/02/22 07:47:31;;;;;;;;;;;;;;;;;;5026408;28;19927;-68
2023/02/22 07:49:56;;;;;;;;;;;;;;;;;;5042175;28;19969;-68
2023/02/22 07:52:23;;;;;;;;;;;;;;;;;;5017955;28;20378;-68
2023/02/22 07:54:48;;;;;;;;;;;;;;;;;;5033463;28;19952;-68
2023/02/22 07:57:14;;;;;;;;;;;;;;;;;;5036902;28;19974;-68
2023/02/22 07:59:40;;;;;;;;;;;;;;;;;;5047482;28;20435;-68
2023/02/22 08:02:06;;;;;;;;;;;;;;;;;;5029303;28;19961;-68
2023/02/22 08:04:32;;;;;;;;;;;;;;;;;;5050313;28;20008;-68
2023/02/22 08:06:58;;;;;;;;;;;;;;;;;;5051102;28;19924;-68
2023/02/22 08:09:24;;;;;;;;;;;;;;;;;;5058260;28;19951;-68
2023/02/22 08:11:50;;;;;;;;;;;;;;;;;;5035167;28;19932;-68
2023/02/22 08:14:16;;;;;;;;;;;;;;;;;;5040576;28;19960;-68
2023/02/22 08:16:42;;;;;;;;;;;;;;;;;;5047191;28;19921;-68
2023/02/22 08:19:08;;;;;;;;;;;;;;;;;;5043309;28;20243;-68
2023/02/22 08:21:33;;;;;;;;;;;;;;;;;;5052276;28;19936;-67
2023/02/22 08:23:59;;;;;;;;;;;;;;;;;;5053044;28;19924;-68
2023/02/22 08:26:25;;;;;;;;;;;;;;;;;;5057427;28;19920;-66
2023/02/22 08:28:51;;;;;;;;;;;;;;;;;;5052616;28;20011;-66
2023/02/22 08:31:17;;;;;;;;;;;;;;;;;;5049261;28;20251;-67
2023/02/22 08:33:43;;;;;;;;;;;;;;;;;;5050755;28;19931;-67
2023/02/22 08:36:09;;;;;;;;;;;;;;;;;;5070685;28;20333;-66
2023/02/22 08:38:35;;;;;;;;;;;;;;;;;;5068763;28;20005;-66
2023/02/22 08:41:01;;;;;;;;;;;;;;;;;;5033115;28;19967;-67
2023/02/22 08:43:27;;;;;;;;;;;;;;;;;;5041359;28;20458;-67
2023/02/22 08:45:53;;;;;;;;;;;;;;;;;;5053567;28;19920;-67
2023/02/22 08:48:19;;;;;;;;;;;;;;;;;;5058151;28;19920;-67
2023/02/22 08:50:45;;;;;;;;;;;;;;;;;;5055415;28;19931;-67
2023/02/22 08:53:12;;;;;;;;;;;;;;;;;;5049289;28;19925;-67
2023/02/22 08:55:38;;;;;;;;;;;;;;;;;;5052231;28;19924;-67
2023/02/22 08:58:04;;;;;;;;;;;;;;;;;;5052821;28;19929;-67
2023/02/22 09:00:31;;;;;;;;;;;;;;;;;;5051414;28;19920;-67
2023/02/22 09:02:57;;;;;;;;;;;;;;;;;;5050959;28;19972;-67
2023/02/22 09:05:23;;;;;;;;;;;;;;;;;;5048381;28;19920;-67
2023/02/22 09:07:49;;;;;;;;;;;;;;;;;;5050838;28;20388;-67
2023/02/22 09:10:15;;;;;;;;;;;;;;;;;;5049723;28;19961;-67
2023/02/22 09:12:41;;;;;;;;;;;;;;;;;;5050975;28;19931;-67
2023/02/22 09:15:07;;;;;;;;;;;;;;;;;;5062658;28;19925;-67
2023/02/22 09:17:36;;;;;;;;;;;;;;;;;;5058700;28;19943;-67
2023/02/22 09:20:02;;;;;;;;;;;;;;;;;;5064555;28;19924;-67
2023/02/22 09:22:28;;;;;;;;;;;;;;;;;;5058043;28;20016;-67
2023/02/22 09:24:53;;;;;;;;;;;;;;;;;;5062703;28;19924;-67
2023/02/22 09:27:19;;;;;;;;;;;;;;;;;;5051480;28;20340;-67
2023/02/22 09:29:45;;;;;;;;;;;;;;;;;;5029221;28;19986;-67
2023/02/22 09:32:11;;;;;;;;;;;;;;;;;;5049572;28;19929;-67
2023/02/22 09:34:37;;;;;;;;;;;;;;;;;;5034740;28;19928;-67
2023/02/22 09:37:07;;;;;;;;;;;;;;;;;;5049679;28;19924;-67
2023/02/22 09:39:36;;;;;;;;;;;;;;;;;;5057938;28;19921;-67
2023/02/22 09:42:02;;;;;;;;;;;;;;;;;;5057917;28;19921;-67
2023/02/22 09:44:28;;;;;;;;;;;;;;;;;;5063501;28;19928;-67
2023/02/22 09:46:55;;;;;;;;;;;;;;;;;;5062804;28;19935;-67
2023/02/22 09:49:21;;;;;;;;;;;;;;;;;;5044093;28;19928;-67
2023/02/22 09:51:48;;;;;;;;;;;;;;;;;;5042751;28;19925;-67
2023/02/22 09:54:14;;;;;;;;;;;;;;;;;;5048126;28;19935;-67
2023/02/22 09:56:39;;;;;;;;;;;;;;;;;;5063775;28;19928;-67
2023/02/22 09:59:06;;;;;;;;;;;;;;;;;;5052421;28;19925;-67
2023/02/22 10:01:32;;;;;;;;;;;;;;;;;;5051397;28;20350;-67
2023/02/22 10:03:59;;;;;;;;;;;;;;;;;;5051066;28;19921;-67
2023/02/22 10:06:24;;;;;;;;;;;;;;;;;;5049303;28;20015;-68
2023/02/22 10:08:52;;;;;;;;;;;;;;;;;;5045054;28;20012;-67
2023/02/22 10:11:18;;;;;;;;;;;;;;;;;;5051611;28;19964;-67
2023/02/22 10:13:44;;;;;;;;;;;;;;;;;;5053450;28;19970;-67
2023/02/22 10:16:10;;;;;;;;;;;;;;;;;;5054109;28;19921;-67
2023/02/22 10:18:36;;;;;;;;;;;;;;;;;;5047442;28;20346;-67
2023/02/22 10:21:02;;;;;;;;;;;;;;;;;;5046967;28;19929;-67
2023/02/22 10:23:27;;;;;;;;;;;;;;;;;;5033149;28;19990;-67
2023/02/22 10:25:53;;;;;;;;;;;;;;;;;;5050288;28;19925;-68
2023/02/22 10:28:19;;;;;;;;;;;;;;;;;;5047286;28;19931;-68
2023/02/22 10:30:45;;;;;;;;;;;;;;;;;;5051134;28;19975;-68
2023/02/22 10:33:11;;;;;;;;;;;;;;;;;;5050486;28;19952;-68
2023/02/22 10:35:37;;;;;;;;;;;;;;;;;;5058084;28;19944;-64
2023/02/22 10:38:05;;;;;;;;;;;;;;;;;;5046959;28;19925;-64
2023/02/22 10:40:31;;;;;;;;;;;;;;;;;;5035762;28;20011;-64
2023/02/22 10:42:57;;;;;;;;;;;;;;;;;;5037462;28;20434;-65
2023/02/22 10:45:24;;;;;;;;;;;;;;;;;;5051933;28;19927;-64
2023/02/22 10:47:50;;;;;;;;;;;;;;;;;;5039574;28;20389;-64
2023/02/22 10:50:16;;;;;;;;;;;;;;;;;;5052497;28;19928;-64
2023/02/22 10:52:42;;;;;;;;;;;;;;;;;;5053434;28;20629;-64
2023/02/22 10:55:11;;;;;;;;;;;;;;;;;;5052996;28;19983;-64
2023/02/22 10:57:37;;;;;;;;;;;;;;;;;;5050155;28;20277;-64
2023/02/22 11:00:12;;;;;;;;;;;;;;;;;;5058351;28;19924;-64
2023/02/22 11:02:38;;;;;;;;;;;;;;;;;;5058480;28;20007;-64
2023/02/22 11:05:04;;;;;;;;;;;;;;;;;;5055603;28;20669;-64
2023/02/22 11:07:29;;;;;;;;;;;;;;;;;;5062512;28;19924;-64
2023/02/22 11:09:55;;;;;;;;;;;;;;;;;;5051283;28;19963;-64
2023/02/22 11:12:21;;;;;;;;;;;;;;;;;;5060258;28;19928;-64
2023/02/22 11:14:47;;;;;;;;;;;;;;;;;;5051426;28;19975;-65
2023/02/22 11:17:13;;;;;;;;;;;;;;;;;;5063459;28;19925;-64
2023/02/22 11:19:39;;;;;;;;;;;;;;;;;;5052522;28;19968;-65
2023/02/22 11:22:05;;;;;;;;;;;;;;;;;;5054701;28;19964;-64
2023/02/22 11:24:31;;;;;;;;;;;;;;;;;;5057980;28;20273;-64
2023/02/22 11:26:57;;;;;;;;;;;;;;;;;;5064961;28;19928;-64
2023/02/22 11:29:23;;;;;;;;;;;;;;;;;;5064207;28;19920;-64
2023/02/22 11:31:48;;;;;;;;;;;;;;;;;;5065215;28;19931;-64
2023/02/22 11:34:14;;;;;;;;;;;;;;;;;;5052637;28;21097;-64
2023/02/22 11:36:40;;;;;;;;;;;;;;;;;;5062011;28;19924;-64
2023/02/22 11:39:10;;;;;;;;;;;;;;;;;;5061191;28;20299;-64
2023/02/22 11:41:36;;;;;;;;;;;;;;;;;;5034012;28;19921;-64
2023/02/22 11:44:01;;;;;;;;;;;;;;;;;;5054496;28;20382;-64
2023/02/22 11:46:27;;;;;;;;;;;;;;;;;;5068458;28;20031;-65
2023/02/22 11:48:53;;;;;;;;;;;;;;;;;;5069785;28;19924;-65
2023/02/22 11:51:20;;;;;;;;;;;;;;;;;;5049057;28;19933;-64
2023/02/22 11:53:46;;;;;;;;;;;;;;;;;;5049367;28;20032;-64
2023/02/22 11:56:12;;;;;;;;;;;;;;;;;;5044526;28;20387;-65
2023/02/22 11:58:38;;;;;;;;;;;;;;;;;;5053661;28;20565;-65
2023/02/22 12:01:05;;;;;;;;;;;;;;;;;;5056713;28;19929;-65
2023/02/22 12:03:31;;;;;;;;;;;;;;;;;;5060175;28;19928;-65
2023/02/22 12:06:00;;;;;;;;;;;;;;;;;;5031856;28;20284;-64
2023/02/22 12:08:27;;;;;;;;;;;;;;;;;;5027400;28;19921;-65
2023/02/22 12:10:54;;;;;;;;;;;;;;;;;;5052907;28;20401;-65
2023/02/22 12:13:20;;;;;;;;;;;;;;;;;;5043332;28;19925;-65
2023/02/22 12:15:46;;;;;;;;;;;;;;;;;;5032373;28;20421;-65
2023/02/22 12:18:11;;;;;;;;;;;;;;;;;;5063840;28;19926;-65
2023/02/22 12:20:38;;;;;;;;;;;;;;;;;;5073203;28;19928;-65
2023/02/22 12:23:05;;;;;;;;;;;;;;;;;;5061323;28;20447;-65
2023/02/22 12:25:31;;;;;;;;;;;;;;;;;;5056785;28;19955;-65
2023/02/22 12:27:57;;;;;;;;;;;;;;;;;;5055754;28;19947;-65
2023/02/22 12:30:23;;;;;;;;;;;;;;;;;;5054698;28;19947;-65
2023/02/22 12:32:49;;;;;;;;;;;;;;;;;;5049718;28;20652;-65
2023/02/22 12:35:15;;;;;;;;;;;;;;;;;;5052567;28;19947;-65
2023/02/22 12:37:41;;;;;;;;;;;;;;;;;;5051749;28;19921;-65
2023/02/22 12:40:07;;;;;;;;;;;;;;;;;;5052348;28;19951;-65
2023/02/22 12:42:33;;;;;;;;;;;;;;;;;;5052041;28;19947;-65
2023/02/22 12:44:59;;;;;;;;;;;;;;;;;;5051785;28;19921;-65
2023/02/22 12:47:25;;;;;;;;;;;;;;;;;;5051734;28;19920;-65
2023/02/22 12:49:50;;;;;;;;;;;;;;;;;;5046564;28;19921;-65
2023/02/22 12:52:16;;;;;;;;;;;;;;;;;;5050383;28;19951;-65
2023/02/22 12:54:42;;;;;;;;;;;;;;;;;;5047256;28;19925;-65
2023/02/22 12:57:08;;;;;;;;;;;;;;;;;;5049992;28;19982;-65
2023/02/22 12:59:34;;;;;;;;;;;;;;;;;;5047179;28;19932;-65
2023/02/22 13:02:00;;;;;;;;;;;;;;;;;;5030684;28;20252;-65
2023/02/22 13:04:26;;;;;;;;;;;;;;;;;;5051029;28;20023;-65
2023/02/22 13:06:52;;;;;;;;;;;;;;;;;;5050901;28;20695;-65
2023/02/22 13:09:18;;;;;;;;;;;;;;;;;;5051452;28;20031;-65
2023/02/22 13:11:44;;;;;;;;;;;;;;;;;;5047849;28;20392;-66
2023/02/22 13:14:10;;;;;;;;;;;;;;;;;;5051658;28;19921;-67
2023/02/22 13:16:36;;;;;;;;;;;;;;;;;;5047869;28;20015;-66
2023/02/22 13:19:02;;;;;;;;;;;;;;;;;;5051211;28;20555;-66
2023/02/22 13:21:28;;;;;;;;;;;;;;;;;;5051493;28;19924;-66
2023/02/22 13:23:54;;;;;;;;;;;;;;;;;;5050970;28;19925;-66
2023/02/22 13:26:20;;;;;;;;;;;;;;;;;;5051719;28;19920;-66
2023/02/22 13:28:46;;;;;;;;;;;;;;;;;;5051307;28;19925;-66
2023/02/22 13:31:12;;;;;;;;;;;;;;;;;;5049370;28;19924;-66
2023/02/22 13:33:37;;;;;;;;;;;;;;;;;;5029283;28;19932;-66
2023/02/22 13:36:05;;;;;;;;;;;;;;;;;;5051366;28;20434;-66
2023/02/22 13:38:32;;;;;;;;;;;;;;;;;;5051495;28;19921;-66
2023/02/22 13:40:58;;;;;;;;;;;;;;;;;;5051122;28;19924;-66
2023/02/22 13:43:23;;;;;;;;;;;;;;;;;;5051553;28;19978;-66
2023/02/22 13:45:49;;;;;;;;;;;;;;;;;;5050163;28;20007;-66
2023/02/22 13:48:15;;;;;;;;;;;;;;;;;;5051168;28;19920;-66
2023/02/22 13:50:41;;;;;;;;;;;;;;;;;;5048060;28;19943;-67
2023/02/22 13:53:08;;;;;;;;;;;;;;;;;;5033310;28;19948;-68
2023/02/22 13:55:36;;;;;;;;;;;;;;;;;;5032724;28;21416;-68
2023/02/22 13:58:02;;;;;;;;;;;;;;;;;;5051163;28;19928;-68
2023/02/22 14:00:28;;;;;;;;;;;;;;;;;;5039721;28;19953;-67
2023/02/22 14:02:53;;;;;;;;;;;;;;;;;;5050917;28;20417;-67
2023/02/22 14:05:19;;;;;;;;;;;;;;;;;;5048201;28;19921;-67
2023/02/22 14:07:45;;;;;;;;;;;;;;;;;;5049693;28;19937;-67
2023/02/22 14:10:11;;;;;;;;;;;;;;;;;;5050809;28;20318;-68
2023/02/22 14:12:37;;;;;;;;;;;;;;;;;;5048443;28;19925;-68
2023/02/22 14:15:03;;;;;;;;;;;;;;;;;;5046716;28;19955;-69
2023/02/22 14:17:29;;;;;;;;;;;;;;;;;;5050702;28;20510;-68
2023/02/22 14:19:55;;;;;;;;;;;;;;;;;;5051121;28;19968;-68
2023/02/22 14:22:21;;;;;;;;;;;;;;;;;;5051036;28;19921;-67
2023/02/22 14:24:47;;;;;;;;;;;;;;;;;;5049309;28;19964;-68
2023/02/22 14:27:13;;;;;;;;;;;;;;;;;;5050268;28;20290;-68
2023/02/22 14:29:38;;;;;;;;;;;;;;;;;;5050080;28;19979;-68
2023/02/22 14:32:05;;;;;;;;;;;;;;;;;;5034734;28;19960;-68
2023/02/22 14:34:31;;;;;;;;;;;;;;;;;;5077400;22;19925;-65
2023/02/22 14:36:56;;;;;;;;;;;;;;;;;;5071179;28;20777;-65
2023/02/22 14:39:22;;;;;;;;;;;;;;;;;;5054518;28;19924;-65
2023/02/22 14:41:48;;;;;;;;;;;;;;;;;;5072955;28;19970;-65
2023/02/22 14:44:14;;;;;;;;;;;;;;;;;;5076827;28;19951;-65
2023/02/22 14:46:40;;;;;;;;;;;;;;;;;;5074279;28;19925;-65
2023/02/22 14:49:08;;;;;;;;;;;;;;;;;;5074595;28;20470;-65
2023/02/22 14:51:34;;;;;;;;;;;;;;;;;;5072905;28;20370;-65
2023/02/22 14:54:00;;;;;;;;;;;;;;;;;;5082442;28;19999;-65
2023/02/22 14:56:27;;;;;;;;;;;;;;;;;;5079178;28;19920;-65
2023/02/22 14:58:54;;;;;;;;;;;;;;;;;;5071305;28;19924;-65
2023/02/22 15:01:19;;;;;;;;;;;;;;;;;;5081092;28;20316;-64
2023/02/22 15:03:45;;;;;;;;;;;;;;;;;;5077260;28;19924;-64
2023/02/22 15:06:13;;;;;;;;;;;;;;;;;;5075099;28;20373;-65
2023/02/22 15:08:40;;;;;;;;;;;;;;;;;;5073512;28;19939;-65
2023/02/22 15:11:06;;;;;;;;;;;;;;;;;;5072347;28;20035;-65
2023/02/22 15:13:32;;;;;;;;;;;;;;;;;;5072276;28;20417;-65
2023/02/22 15:15:58;;;;;;;;;;;;;;;;;;5087570;28;19930;-65
2023/02/22 15:18:25;;;;;;;;;;;;;;;;;;5066143;28;20007;-65
2023/02/22 15:20:54;;;;;;;;;;;;;;;;;;5077421;28;19931;-65
2023/02/22 15:23:20;;;;;;;;;;;;;;;;;;5083705;28;19926;-66
2023/02/22 15:25:47;;;;;;;;;;;;;;;;;;5081982;28;20007;-66
2023/02/22 15:28:13;;;;;;;;;;;;;;;;;;5081032;28;19925;-64
2023/02/22 15:30:40;;;;;;;;;;;;;;;;;;5078702;28;19925;-66
2023/02/22 15:33:06;;;;;;;;;;;;;;;;;;5074329;28;19928;-67
2023/02/22 15:35:32;;;;;;;;;;;;;;;;;;5072737;28;19920;-66
2023/02/22 15:37:58;;;;;;;;;;;;;;;;;;5073035;28;20099;-66
2023/02/22 15:40:31;;;;;;;;;;;;;;;;;;5076450;28;19924;-66
2023/02/22 15:42:57;;;;;;;;;;;;;;;;;;5066379;28;19924;-65
2023/02/22 15:45:27;;;;;;;;;;;;;;;;;;5074184;28;19982;-66
2023/02/22 15:47:57;;;;;;;;;;;;;;;;;;5055625;28;19920;-65
2023/02/22 15:50:24;;;;;;;;;;;;;;;;;;5069762;28;19928;-66
2023/02/22 15:52:52;;;;;;;;;;;;;;;;;;5075373;28;19932;-65
2023/02/22 15:55:17;;;;;;;;;;;;;;;;;;5054678;28;19927;-66
2023/02/22 15:57:43;;;;;;;;;;;;;;;;;;5057986;28;19920;-65
2023/02/22 16:00:10;;;;;;;;;;;;;;;;;;5070870;28;19927;-66
2023/02/22 16:02:35;;;;;;;;;;;;;;;;;;5075685;28;19936;-66
2023/02/22 16:05:01;;;;;;;;;;;;;;;;;;5071493;28;19920;-66
2023/02/22 16:07:27;;;;;;;;;;;;;;;;;;5075342;28;19965;-66
2023/02/22 16:09:53;;;;;;;;;;;;;;;;;;5075724;28;19932;-65
2023/02/22 16:12:19;;;;;;;;;;;;;;;;;;5075780;28;19921;-66
2023/02/22 16:14:47;;;;;;;;;;;;;;;;;;5068927;28;19966;-66
2023/02/22 16:17:13;;;;;;;;;;;;;;;;;;5074356;28;19924;-66
2023/02/22 16:19:39;;;;;;;;;;;;;;;;;;5057890;28;20711;-65
2023/02/22 16:22:12;;;;;;;;;;;;;;;;;;5075227;28;19988;-65
2023/02/22 16:24:38;;;;;;;;;;;;;;;;;;5053810;28;19927;-66
2023/02/22 16:27:04;;;;;;;;;;;;;;;;;;5072341;28;19921;-65
2023/02/22 16:29:29;;;;;;;;;;;;;;;;;;5072617;28;19967;-65
2023/02/22 16:31:55;;;;;;;;;;;;;;;;;;5073669;28;20396;-66
2023/02/22 16:34:21;;;;;;;;;;;;;;;;;;5076077;28;20054;-65
2023/02/22 16:36:47;;;;;;;;;;;;;;;;;;5056560;28;19920;-65